sensor_id;sensor_type;location;lat;lon;timestamp;temperature;humidity
1956;DHT22;978;48.314;11.562;2024-03-02T00:00:49;20.40;66.10
1956;DHT22;978;48.314;11.562;2024-03-02T00:03:16;20.40;66.10
1956;DHT22;978;48.314;11.562;2024-03-02T00:05:43;20.40;66.20
1956;DHT22;978;48.314;11.562;2024-03-02T00:08:10;20.40;66.20
1956;DHT22;978;48.314;11.562;2024-03-02T00:10:38;20.40;66.20
1956;DHT22;978;48.314;11.562;2024-03-02T00:13:06;20.40;66.20
1956;DHT22;978;48.314;11.562;2024-03-02T00:15:41;20.40;66.20
1956;DHT22;978;48.314;11.562;2024-03-02T00:18:10;20.40;66.20
1956;DHT22;978;48.314;11.562;2024-03-02T00:20:38;20.40;66.20
1956;DHT22;978;48.314;11.562;2024-03-02T00:23:07;20.40;66.20
1956;DHT22;978;48.314;11.562;2024-03-02T00:25:37;20.40;66.20
1956;DHT22;978;48.314;11.562;2024-03-02T00:28:04;20.40;66.20
1956;DHT22;978;48.314;11.562;2024-03-02T00:30:55;20.40;66.20
1956;DHT22;978;48.314;11.562;2024-03-02T00:33:23;20.40;66.20
1956;DHT22;978;48.314;11.562;2024-03-02T00:35:50;20.40;66.20
1956;DHT22;978;48.314;11.562;2024-03-02T00:38:17;20.40;66.20
1956;DHT22;978;48.314;11.562;2024-03-02T00:40:45;20.40;66.20
1956;DHT22;978;48.314;11.562;2024-03-02T00:43:43;20.40;66.20
1956;DHT22;978;48.314;11.562;2024-03-02T00:46:16;20.40;66.20
1956;DHT22;978;48.314;11.562;2024-03-02T00:48:50;20.40;66.20
1956;DHT22;978;48.314;11.562;2024-03-02T00:51:17;20.40;66.20
1956;DHT22;978;48.314;11.562;2024-03-02T00:53:44;20.40;66.20
1956;DHT22;978;48.314;11.562;2024-03-02T00:56:11;20.40;66.20
1956;DHT22;978;48.314;11.562;2024-03-02T00:58:38;20.40;66.20
1956;DHT22;978;48.314;11.562;2024-03-02T01:01:05;20.40;66.80
1956;DHT22;978;48.314;11.562;2024-03-02T01:03:34;20.40;66.20
1956;DHT22;978;48.314;11.562;2024-03-02T01:06:01;20.40;66.20
1956;DHT22;978;48.314;11.562;2024-03-02T01:08:27;20.40;66.20
1956;DHT22;978;48.314;11.562;2024-03-02T01:10:54;20.40;66.20
1956;DHT22;978;48.314;11.562;2024-03-02T01:13:22;20.40;66.30
1956;DHT22;978;48.314;11.562;2024-03-02T01:15:49;20.40;66.20
1956;DHT22;978;48.314;11.562;2024-03-02T01:18:16;20.40;66.20
1956;DHT22;978;48.314;11.562;2024-03-02T01:20:44;20.40;66.20
1956;DHT22;978;48.314;11.562;2024-03-02T01:23:11;20.40;66.30
1956;DHT22;978;48.314;11.562;2024-03-02T01:25:38;20.40;66.20
1956;DHT22;978;48.314;11.562;2024-03-02T01:28:05;20.40;66.20
1956;DHT22;978;48.314;11.562;2024-03-02T01:30:32;20.40;66.30
1956;DHT22;978;48.314;11.562;2024-03-02T01:32:59;20.40;66.30
1956;DHT22;978;48.314;11.562;2024-03-02T01:35:27;20.40;66.20
1956;DHT22;978;48.314;11.562;2024-03-02T01:37:55;20.40;66.30
1956;DHT22;978;48.314;11.562;2024-03-02T01:40:22;20.40;66.30
1956;DHT22;978;48.314;11.562;2024-03-02T01:42:52;20.40;66.30
1956;DHT22;978;48.314;11.562;2024-03-02T01:45:19;20.40;66.30
1956;DHT22;978;48.314;11.562;2024-03-02T01:47:46;20.40;66.30
1956;DHT22;978;48.314;11.562;2024-03-02T01:50:13;20.40;66.30
1956;DHT22;978;48.314;11.562;2024-03-02T01:52:40;20.40;66.30
1956;DHT22;978;48.314;11.562;2024-03-02T01:55:09;20.40;66.30
1956;DHT22;978;48.314;11.562;2024-03-02T01:57:35;20.40;66.30
1956;DHT22;978;48.314;11.562;2024-03-02T02:00:03;20.40;66.30
1956;DHT22;978;48.314;11.562;2024-03-02T02:02:31;20.40;66.30
1956;DHT22;978;48.314;11.562;2024-03-02T02:04:57;20.40;66.30
1956;DHT22;978;48.314;11.562;2024-03-02T02:07:24;20.40;66.40
1956;DHT22;978;48.314;11.562;2024-03-02T02:09:51;20.40;66.90
1956;DHT22;978;48.314;11.562;2024-03-02T02:12:19;20.40;66.30
1956;DHT22;978;48.314;11.562;2024-03-02T02:14:49;20.40;66.30
1956;DHT22;978;48.314;11.562;2024-03-02T02:17:16;20.40;66.90
1956;DHT22;978;48.314;11.562;2024-03-02T02:19:43;20.40;66.30
1956;DHT22;978;48.314;11.562;2024-03-02T02:22:11;20.40;66.30
1956;DHT22;978;48.314;11.562;2024-03-02T02:24:40;20.40;66.30
1956;DHT22;978;48.314;11.562;2024-03-02T02:27:07;20.40;66.40
1956;DHT22;978;48.314;11.562;2024-03-02T02:29:34;20.40;66.30
1956;DHT22;978;48.314;11.562;2024-03-02T02:32:00;20.40;66.30
1956;DHT22;978;48.314;11.562;2024-03-02T02:34:27;20.40;66.40
1956;DHT22;978;48.314;11.562;2024-03-02T02:36:55;20.40;66.40
1956;DHT22;978;48.314;11.562;2024-03-02T02:39:23;20.40;66.40
1956;DHT22;978;48.314;11.562;2024-03-02T02:41:49;20.40;66.40
1956;DHT22;978;48.314;11.562;2024-03-02T02:44:16;20.40;66.40
1956;DHT22;978;48.314;11.562;2024-03-02T02:46:43;20.40;66.40
1956;DHT22;978;48.314;11.562;2024-03-02T02:49:10;20.40;66.40
1956;DHT22;978;48.314;11.562;2024-03-02T02:51:36;20.40;66.40
1956;DHT22;978;48.314;11.562;2024-03-02T02:54:03;20.80;66.60
1956;DHT22;978;48.314;11.562;2024-03-02T02:56:31;20.40;66.40
1956;DHT22;978;48.314;11.562;2024-03-02T02:58:58;20.40;66.40
1956;DHT22;978;48.314;11.562;2024-03-02T03:01:25;20.40;66.40
1956;DHT22;978;48.314;11.562;2024-03-02T03:03:52;20.40;66.40
1956;DHT22;978;48.314;11.562;2024-03-02T03:06:19;20.40;66.40
1956;DHT22;978;48.314;11.562;2024-03-02T03:08:45;20.40;66.40
1956;DHT22;978;48.314;11.562;2024-03-02T03:11:12;21.80;67.20
1956;DHT22;978;48.314;11.562;2024-03-02T03:13:41;20.40;66.40
1956;DHT22;978;48.314;11.562;2024-03-02T03:16:08;20.40;66.40
1956;DHT22;978;48.314;11.562;2024-03-02T03:18:35;20.40;66.40
1956;DHT22;978;48.314;11.562;2024-03-02T03:21:01;20.40;66.40
1956;DHT22;978;48.314;11.562;2024-03-02T03:23:28;20.40;66.40
1956;DHT22;978;48.314;11.562;2024-03-02T03:25:55;20.40;66.40
1956;DHT22;978;48.314;11.562;2024-03-02T03:28:22;20.40;66.40
1956;DHT22;978;48.314;11.562;2024-03-02T03:30:49;20.40;66.40
1956;DHT22;978;48.314;11.562;2024-03-02T03:33:15;20.40;66.50
1956;DHT22;978;48.314;11.562;2024-03-02T03:35:42;20.50;66.50
1956;DHT22;978;48.314;11.562;2024-03-02T03:38:09;20.40;66.40
1956;DHT22;978;48.314;11.562;2024-03-02T03:40:36;20.40;66.40
1956;DHT22;978;48.314;11.562;2024-03-02T03:43:03;20.40;66.40
1956;DHT22;978;48.314;11.562;2024-03-02T03:45:30;20.40;66.40
1956;DHT22;978;48.314;11.562;2024-03-02T03:47:58;20.30;66.30
1956;DHT22;978;48.314;11.562;2024-03-02T03:50:24;20.40;66.40
1956;DHT22;978;48.314;11.562;2024-03-02T03:52:51;20.40;66.40
1956;DHT22;978;48.314;11.562;2024-03-02T03:55:18;20.40;66.40
1956;DHT22;978;48.314;11.562;2024-03-02T03:57:44;20.40;66.40
1956;DHT22;978;48.314;11.562;2024-03-02T04:00:12;20.40;66.40
1956;DHT22;978;48.314;11.562;2024-03-02T04:02:39;20.40;66.40
1956;DHT22;978;48.314;11.562;2024-03-02T04:05:08;20.40;66.40
1956;DHT22;978;48.314;11.562;2024-03-02T04:07:36;20.40;66.40
1956;DHT22;978;48.314;11.562;2024-03-02T04:10:07;20.40;66.40
1956;DHT22;978;48.314;11.562;2024-03-02T04:12:33;20.40;66.40
1956;DHT22;978;48.314;11.562;2024-03-02T04:15:00;20.40;66.40
1956;DHT22;978;48.314;11.562;2024-03-02T04:17:31;20.40;66.40
1956;DHT22;978;48.314;11.562;2024-03-02T04:19:57;20.40;66.40
1956;DHT22;978;48.314;11.562;2024-03-02T04:22:26;20.40;66.40
1956;DHT22;978;48.314;11.562;2024-03-02T04:24:53;20.40;66.40
1956;DHT22;978;48.314;11.562;2024-03-02T04:27:20;20.40;66.40
1956;DHT22;978;48.314;11.562;2024-03-02T04:29:46;20.40;66.40
1956;DHT22;978;48.314;11.562;2024-03-02T04:32:13;20.40;66.50
1956;DHT22;978;48.314;11.562;2024-03-02T04:34:40;20.40;66.40
1956;DHT22;978;48.314;11.562;2024-03-02T04:37:07;20.40;66.50
1956;DHT22;978;48.314;11.562;2024-03-02T04:39:36;20.40;66.50
1956;DHT22;978;48.314;11.562;2024-03-02T04:42:03;20.40;66.40
1956;DHT22;978;48.314;11.562;2024-03-02T04:44:29;20.40;66.40
1956;DHT22;978;48.314;11.562;2024-03-02T04:46:56;20.40;66.40
1956;DHT22;978;48.314;11.562;2024-03-02T04:49:23;20.40;66.40
1956;DHT22;978;48.314;11.562;2024-03-02T04:51:50;20.40;66.40
1956;DHT22;978;48.314;11.562;2024-03-02T04:54:17;20.40;66.40
1956;DHT22;978;48.314;11.562;2024-03-02T04:56:45;20.40;66.50
1956;DHT22;978;48.314;11.562;2024-03-02T04:59:15;20.30;66.40
1956;DHT22;978;48.314;11.562;2024-03-02T05:01:41;20.40;66.50
1956;DHT22;978;48.314;11.562;2024-03-02T05:04:08;20.40;66.50
1956;DHT22;978;48.314;11.562;2024-03-02T05:06:37;20.40;66.50
1956;DHT22;978;48.314;11.562;2024-03-02T05:09:04;20.40;66.50
1956;DHT22;978;48.314;11.562;2024-03-02T05:11:30;20.40;66.50
1956;DHT22;978;48.314;11.562;2024-03-02T05:14:29;20.40;66.50
1956;DHT22;978;48.314;11.562;2024-03-02T05:16:56;20.40;66.50
1956;DHT22;978;48.314;11.562;2024-03-02T05:19:23;20.30;66.40
1956;DHT22;978;48.314;11.562;2024-03-02T05:21:50;20.40;66.50
1956;DHT22;978;48.314;11.562;2024-03-02T05:24:17;20.40;66.50
1956;DHT22;978;48.314;11.562;2024-03-02T05:26:44;20.40;66.50
1956;DHT22;978;48.314;11.562;2024-03-02T05:29:11;20.40;66.50
1956;DHT22;978;48.314;11.562;2024-03-02T05:31:39;20.40;66.50
1956;DHT22;978;48.314;11.562;2024-03-02T05:34:06;20.40;66.50
1956;DHT22;978;48.314;11.562;2024-03-02T05:36:33;20.40;66.50
1956;DHT22;978;48.314;11.562;2024-03-02T05:38:59;20.40;66.50
1956;DHT22;978;48.314;11.562;2024-03-02T05:41:26;20.40;66.50
1956;DHT22;978;48.314;11.562;2024-03-02T05:43:53;20.40;66.50
1956;DHT22;978;48.314;11.562;2024-03-02T05:46:20;20.40;66.50
1956;DHT22;978;48.314;11.562;2024-03-02T05:48:48;20.40;66.50
1956;DHT22;978;48.314;11.562;2024-03-02T05:51:15;20.40;66.50
1956;DHT22;978;48.314;11.562;2024-03-02T05:53:42;20.50;66.60
1956;DHT22;978;48.314;11.562;2024-03-02T05:56:09;20.40;66.50
1956;DHT22;978;48.314;11.562;2024-03-02T05:58:35;20.40;66.50
1956;DHT22;978;48.314;11.562;2024-03-02T06:01:15;20.40;66.50
1956;DHT22;978;48.314;11.562;2024-03-02T06:03:42;20.40;66.50
1956;DHT22;978;48.314;11.562;2024-03-02T06:06:10;20.40;66.50
1956;DHT22;978;48.314;11.562;2024-03-02T06:08:38;20.40;66.50
1956;DHT22;978;48.314;11.562;2024-03-02T06:11:05;20.40;66.60
1956;DHT22;978;48.314;11.562;2024-03-02T06:13:31;20.40;66.50
1956;DHT22;978;48.314;11.562;2024-03-02T06:15:58;20.40;66.50
1956;DHT22;978;48.314;11.562;2024-03-02T06:18:25;20.40;67.10
1956;DHT22;978;48.314;11.562;2024-03-02T06:20:52;21.40;67.10
1956;DHT22;978;48.314;11.562;2024-03-02T06:23:20;20.40;66.50
1956;DHT22;978;48.314;11.562;2024-03-02T06:25:47;20.40;66.60
1956;DHT22;978;48.314;11.562;2024-03-02T06:28:14;20.40;66.50
1956;DHT22;978;48.314;11.562;2024-03-02T06:30:41;20.40;66.50
1956;DHT22;978;48.314;11.562;2024-03-02T06:33:07;20.40;66.50
1956;DHT22;978;48.314;11.562;2024-03-02T06:35:34;20.40;66.60
1956;DHT22;978;48.314;11.562;2024-03-02T06:38:01;20.40;66.50
1956;DHT22;978;48.314;11.562;2024-03-02T06:40:30;20.40;66.50
1956;DHT22;978;48.314;11.562;2024-03-02T06:42:56;20.40;66.50
1956;DHT22;978;48.314;11.562;2024-03-02T06:45:23;20.30;66.50
1956;DHT22;978;48.314;11.562;2024-03-02T06:47:50;20.40;66.50
1956;DHT22;978;48.314;11.562;2024-03-02T06:50:16;20.40;66.60
1956;DHT22;978;48.314;11.562;2024-03-02T06:52:43;20.40;66.50
1956;DHT22;978;48.314;11.562;2024-03-02T06:55:10;20.40;66.60
1956;DHT22;978;48.314;11.562;2024-03-02T06:57:38;20.40;66.50
1956;DHT22;978;48.314;11.562;2024-03-02T07:00:06;20.30;66.50
1956;DHT22;978;48.314;11.562;2024-03-02T07:02:34;20.40;66.60
1956;DHT22;978;48.314;11.562;2024-03-02T07:05:01;20.40;66.50
1956;DHT22;978;48.314;11.562;2024-03-02T07:07:28;20.40;66.60
1956;DHT22;978;48.314;11.562;2024-03-02T07:09:55;20.40;66.50
1956;DHT22;978;48.314;11.562;2024-03-02T07:12:21;20.40;66.60
1956;DHT22;978;48.314;11.562;2024-03-02T07:14:49;20.40;66.60
1956;DHT22;978;48.314;11.562;2024-03-02T07:17:44;20.40;66.60
1956;DHT22;978;48.314;11.562;2024-03-02T07:20:11;20.30;66.50
1956;DHT22;978;48.314;11.562;2024-03-02T07:22:38;20.40;66.60
1956;DHT22;978;48.314;11.562;2024-03-02T07:25:05;20.40;66.60
1956;DHT22;978;48.314;11.562;2024-03-02T07:27:33;20.40;66.60
1956;DHT22;978;48.314;11.562;2024-03-02T07:30:02;20.40;66.60
1956;DHT22;978;48.314;11.562;2024-03-02T07:32:28;20.40;66.60
1956;DHT22;978;48.314;11.562;2024-03-02T07:34:55;20.40;66.60
1956;DHT22;978;48.314;11.562;2024-03-02T07:37:22;20.40;66.60
1956;DHT22;978;48.314;11.562;2024-03-02T07:39:49;20.40;66.60
1956;DHT22;978;48.314;11.562;2024-03-02T07:42:15;20.30;66.60
1956;DHT22;978;48.314;11.562;2024-03-02T07:44:43;20.40;66.60
1956;DHT22;978;48.314;11.562;2024-03-02T07:47:12;20.40;66.70
1956;DHT22;978;48.314;11.562;2024-03-02T07:49:38;20.40;66.60
1956;DHT22;978;48.314;11.562;2024-03-02T07:52:05;20.40;66.60
1956;DHT22;978;48.314;11.562;2024-03-02T07:54:32;20.40;66.50
1956;DHT22;978;48.314;11.562;2024-03-02T07:56:59;20.40;66.50
1956;DHT22;978;48.314;11.562;2024-03-02T07:59:26;20.40;66.50
1956;DHT22;978;48.314;11.562;2024-03-02T08:01:53;20.40;66.60
1956;DHT22;978;48.314;11.562;2024-03-02T08:04:22;20.40;66.60
1956;DHT22;978;48.314;11.562;2024-03-02T08:06:49;20.40;66.70
1956;DHT22;978;48.314;11.562;2024-03-02T08:09:15;20.40;66.60
1956;DHT22;978;48.314;11.562;2024-03-02T08:11:42;20.60;66.70
1956;DHT22;978;48.314;11.562;2024-03-02T08:14:09;20.40;66.60
1956;DHT22;978;48.314;11.562;2024-03-02T08:16:35;20.40;66.60
1956;DHT22;978;48.314;11.562;2024-03-02T08:19:01;20.40;66.70
1956;DHT22;978;48.314;11.562;2024-03-02T08:21:30;20.40;66.60
1956;DHT22;978;48.314;11.562;2024-03-02T08:23:57;20.40;66.60
1956;DHT22;978;48.314;11.562;2024-03-02T08:26:24;20.40;66.60
1956;DHT22;978;48.314;11.562;2024-03-02T08:28:54;20.40;66.60
1956;DHT22;978;48.314;11.562;2024-03-02T08:31:21;20.40;66.50
1956;DHT22;978;48.314;11.562;2024-03-02T08:33:47;22.40;67.70
1956;DHT22;978;48.314;11.562;2024-03-02T08:36:14;20.40;66.50
1956;DHT22;978;48.314;11.562;2024-03-02T08:38:43;20.40;66.50
1956;DHT22;978;48.314;11.562;2024-03-02T08:41:10;20.40;66.50
1956;DHT22;978;48.314;11.562;2024-03-02T08:43:38;20.40;66.50
1956;DHT22;978;48.314;11.562;2024-03-02T08:46:06;20.30;66.40
1956;DHT22;978;48.314;11.562;2024-03-02T08:48:34;20.40;66.40
1956;DHT22;978;48.314;11.562;2024-03-02T08:51:00;20.40;66.50
1956;DHT22;978;48.314;11.562;2024-03-02T08:53:30;20.40;66.60
1956;DHT22;978;48.314;11.562;2024-03-02T08:55:58;20.40;66.50
1956;DHT22;978;48.314;11.562;2024-03-02T08:58:24;20.40;66.40
1956;DHT22;978;48.314;11.562;2024-03-02T09:00:51;20.40;66.40
1956;DHT22;978;48.314;11.562;2024-03-02T09:03:18;20.40;66.40
1956;DHT22;978;48.314;11.562;2024-03-02T09:05:45;20.40;66.40
1956;DHT22;978;48.314;11.562;2024-03-02T09:08:12;20.40;66.40
1956;DHT22;978;48.314;11.562;2024-03-02T09:10:39;20.40;66.40
1956;DHT22;978;48.314;11.562;2024-03-02T09:13:07;20.40;66.40
1956;DHT22;978;48.314;11.562;2024-03-02T09:15:34;20.40;66.40
1956;DHT22;978;48.314;11.562;2024-03-02T09:18:03;20.40;66.40
1956;DHT22;978;48.314;11.562;2024-03-02T09:20:30;20.40;66.40
1956;DHT22;978;48.314;11.562;2024-03-02T09:22:57;20.40;66.40
1956;DHT22;978;48.314;11.562;2024-03-02T09:25:23;20.40;66.40
1956;DHT22;978;48.314;11.562;2024-03-02T09:27:50;20.40;66.40
1956;DHT22;978;48.314;11.562;2024-03-02T09:30:19;20.40;66.40
1956;DHT22;978;48.314;11.562;2024-03-02T09:32:45;20.50;66.50
1956;DHT22;978;48.314;11.562;2024-03-02T09:35:12;20.40;66.40
1956;DHT22;978;48.314;11.562;2024-03-02T09:37:39;20.40;66.40
1956;DHT22;978;48.314;11.562;2024-03-02T09:40:06;20.40;66.40
1956;DHT22;978;48.314;11.562;2024-03-02T09:42:33;20.40;66.40
1956;DHT22;978;48.314;11.562;2024-03-02T09:45:00;20.40;66.40
1956;DHT22;978;48.314;11.562;2024-03-02T09:47:28;20.40;66.40
1956;DHT22;978;48.314;11.562;2024-03-02T09:49:55;20.40;66.40
1956;DHT22;978;48.314;11.562;2024-03-02T09:52:22;20.40;66.40
1956;DHT22;978;48.314;11.562;2024-03-02T09:54:49;20.40;66.40
1956;DHT22;978;48.314;11.562;2024-03-02T09:57:16;20.40;66.40
1956;DHT22;978;48.314;11.562;2024-03-02T09:59:43;20.40;66.40
1956;DHT22;978;48.314;11.562;2024-03-02T10:02:11;20.40;66.40
1956;DHT22;978;48.314;11.562;2024-03-02T10:04:39;20.40;66.40
1956;DHT22;978;48.314;11.562;2024-03-02T10:07:13;20.40;66.40
1956;DHT22;978;48.314;11.562;2024-03-02T10:09:40;20.40;66.40
1956;DHT22;978;48.314;11.562;2024-03-02T10:12:08;20.40;66.40
1956;DHT22;978;48.314;11.562;2024-03-02T10:14:35;20.40;66.40
1956;DHT22;978;48.314;11.562;2024-03-02T10:17:03;20.40;66.30
1956;DHT22;978;48.314;11.562;2024-03-02T10:19:30;20.40;66.30
1956;DHT22;978;48.314;11.562;2024-03-02T10:22:00;20.40;66.30
1956;DHT22;978;48.314;11.562;2024-03-02T10:24:28;20.40;66.20
1956;DHT22;978;48.314;11.562;2024-03-02T10:27:01;20.40;66.20
1956;DHT22;978;48.314;11.562;2024-03-02T10:29:29;20.40;66.20
1956;DHT22;978;48.314;11.562;2024-03-02T10:31:57;20.40;66.20
1956;DHT22;978;48.314;11.562;2024-03-02T10:34:24;20.40;66.20
1956;DHT22;978;48.314;11.562;2024-03-02T10:36:51;20.40;66.20
1956;DHT22;978;48.314;11.562;2024-03-02T10:39:19;20.40;66.20
1956;DHT22;978;48.314;11.562;2024-03-02T10:41:49;20.40;66.20
1956;DHT22;978;48.314;11.562;2024-03-02T10:44:19;20.40;66.20
1956;DHT22;978;48.314;11.562;2024-03-02T10:46:46;20.40;66.20
1956;DHT22;978;48.314;11.562;2024-03-02T10:49:14;20.40;66.20
1956;DHT22;978;48.314;11.562;2024-03-02T10:51:40;20.40;66.20
1956;DHT22;978;48.314;11.562;2024-03-02T10:54:08;20.40;66.20
1956;DHT22;978;48.314;11.562;2024-03-02T10:56:39;20.40;66.20
1956;DHT22;978;48.314;11.562;2024-03-02T10:59:16;20.40;66.20
1956;DHT22;978;48.314;11.562;2024-03-02T11:01:47;20.40;66.20
1956;DHT22;978;48.314;11.562;2024-03-02T11:04:16;20.40;66.20
1956;DHT22;978;48.314;11.562;2024-03-02T11:06:47;20.40;66.20
1956;DHT22;978;48.314;11.562;2024-03-02T11:09:17;20.40;66.20
1956;DHT22;978;48.314;11.562;2024-03-02T11:11:53;20.40;66.20
1956;DHT22;978;48.314;11.562;2024-03-02T11:14:24;20.40;66.40
1956;DHT22;978;48.314;11.562;2024-03-02T11:16:51;20.40;66.50
1956;DHT22;978;48.314;11.562;2024-03-02T11:19:19;20.40;66.70
1956;DHT22;978;48.314;11.562;2024-03-02T11:21:47;20.40;66.70
1956;DHT22;978;48.314;11.562;2024-03-02T11:24:28;20.40;66.80
1956;DHT22;978;48.314;11.562;2024-03-02T11:27:00;20.40;66.90
1956;DHT22;978;48.314;11.562;2024-03-02T11:29:47;20.40;67.00
1956;DHT22;978;48.314;11.562;2024-03-02T11:32:16;20.40;67.00
1956;DHT22;978;48.314;11.562;2024-03-02T11:34:45;20.40;67.10
1956;DHT22;978;48.314;11.562;2024-03-02T11:37:13;20.40;67.10
1956;DHT22;978;48.314;11.562;2024-03-02T11:39:40;20.40;67.10
1956;DHT22;978;48.314;11.562;2024-03-02T11:42:09;20.40;67.20
1956;DHT22;978;48.314;11.562;2024-03-02T11:44:37;20.40;67.20
1956;DHT22;978;48.314;11.562;2024-03-02T11:47:06;20.40;67.30
1956;DHT22;978;48.314;11.562;2024-03-02T11:49:37;20.40;67.20
1956;DHT22;978;48.314;11.562;2024-03-02T11:52:05;20.40;67.20
1956;DHT22;978;48.314;11.562;2024-03-02T11:54:33;20.40;67.30
1956;DHT22;978;48.314;11.562;2024-03-02T11:57:01;20.40;67.30
1956;DHT22;978;48.314;11.562;2024-03-02T11:59:30;20.40;67.30
1956;DHT22;978;48.314;11.562;2024-03-02T12:01:58;20.40;67.20
1956;DHT22;978;48.314;11.562;2024-03-02T12:04:25;20.50;67.20
1956;DHT22;978;48.314;11.562;2024-03-02T12:06:55;20.40;67.20
1956;DHT22;978;48.314;11.562;2024-03-02T12:09:22;20.40;67.20
1956;DHT22;978;48.314;11.562;2024-03-02T12:12:01;20.40;67.20
1956;DHT22;978;48.314;11.562;2024-03-02T12:14:30;20.50;67.20
1956;DHT22;978;48.314;11.562;2024-03-02T12:16:57;20.40;67.10
1956;DHT22;978;48.314;11.562;2024-03-02T12:19:25;20.40;67.00
1956;DHT22;978;48.314;11.562;2024-03-02T12:21:53;20.40;67.00
1956;DHT22;978;48.314;11.562;2024-03-02T12:24:21;20.40;67.00
1956;DHT22;978;48.314;11.562;2024-03-02T12:26:48;20.50;67.00
1956;DHT22;978;48.314;11.562;2024-03-02T12:29:16;20.40;66.90
1956;DHT22;978;48.314;11.562;2024-03-02T12:31:44;20.40;66.80
1956;DHT22;978;48.314;11.562;2024-03-02T12:34:12;20.40;66.80
1956;DHT22;978;48.314;11.562;2024-03-02T12:36:40;20.40;66.80
1956;DHT22;978;48.314;11.562;2024-03-02T12:39:07;20.50;66.90
1956;DHT22;978;48.314;11.562;2024-03-02T12:41:36;20.40;67.00
1956;DHT22;978;48.314;11.562;2024-03-02T12:44:04;20.40;67.00
1956;DHT22;978;48.314;11.562;2024-03-02T12:46:31;20.40;67.00
1956;DHT22;978;48.314;11.562;2024-03-02T12:49:06;20.40;67.10
1956;DHT22;978;48.314;11.562;2024-03-02T12:51:33;20.50;67.20
1956;DHT22;978;48.314;11.562;2024-03-02T12:54:01;20.40;67.20
1956;DHT22;978;48.314;11.562;2024-03-02T12:56:29;20.40;67.20
1956;DHT22;978;48.314;11.562;2024-03-02T12:58:56;20.40;67.20
1956;DHT22;978;48.314;11.562;2024-03-02T13:01:23;20.40;67.30
1956;DHT22;978;48.314;11.562;2024-03-02T13:03:50;20.40;67.30
1956;DHT22;978;48.314;11.562;2024-03-02T13:06:18;20.40;67.30
1956;DHT22;978;48.314;11.562;2024-03-02T13:08:46;20.40;67.40
1956;DHT22;978;48.314;11.562;2024-03-02T13:11:13;20.50;67.50
1956;DHT22;978;48.314;11.562;2024-03-02T13:13:40;20.40;67.40
1956;DHT22;978;48.314;11.562;2024-03-02T13:16:08;20.40;67.30
1956;DHT22;978;48.314;11.562;2024-03-02T13:18:36;20.40;67.30
1956;DHT22;978;48.314;11.562;2024-03-02T13:21:03;20.40;67.30
1956;DHT22;978;48.314;11.562;2024-03-02T13:23:31;20.40;67.40
1956;DHT22;978;48.314;11.562;2024-03-02T13:25:58;20.40;67.40
1956;DHT22;978;48.314;11.562;2024-03-02T13:28:25;20.40;67.40
1956;DHT22;978;48.314;11.562;2024-03-02T13:30:52;20.40;67.40
1956;DHT22;978;48.314;11.562;2024-03-02T13:33:19;20.40;67.40
1956;DHT22;978;48.314;11.562;2024-03-02T13:35:48;20.40;68.10
1956;DHT22;978;48.314;11.562;2024-03-02T13:38:16;20.40;67.40
1956;DHT22;978;48.314;11.562;2024-03-02T13:40:44;20.40;67.40
1956;DHT22;978;48.314;11.562;2024-03-02T13:43:11;20.50;67.50
1956;DHT22;978;48.314;11.562;2024-03-02T13:45:38;20.50;67.50
1956;DHT22;978;48.314;11.562;2024-03-02T13:48:06;20.40;67.40
1956;DHT22;978;48.314;11.562;2024-03-02T13:50:33;20.50;67.50
1956;DHT22;978;48.314;11.562;2024-03-02T13:53:00;20.40;67.60
1956;DHT22;978;48.314;11.562;2024-03-02T13:55:28;20.40;67.60
1956;DHT22;978;48.314;11.562;2024-03-02T13:57:56;20.40;67.50
1956;DHT22;978;48.314;11.562;2024-03-02T14:00:24;20.50;67.70
1956;DHT22;978;48.314;11.562;2024-03-02T14:02:51;23.20;69.20
1956;DHT22;978;48.314;11.562;2024-03-02T14:05:17;20.40;67.60
1956;DHT22;978;48.314;11.562;2024-03-02T14:07:45;20.50;67.70
1956;DHT22;978;48.314;11.562;2024-03-02T14:10:11;20.40;67.70
1956;DHT22;978;48.314;11.562;2024-03-02T14:12:39;20.40;67.60
1956;DHT22;978;48.314;11.562;2024-03-02T14:15:07;20.50;67.70
1956;DHT22;978;48.314;11.562;2024-03-02T14:17:35;20.50;67.60
1956;DHT22;978;48.314;11.562;2024-03-02T14:20:02;20.50;67.60
1956;DHT22;978;48.314;11.562;2024-03-02T14:22:30;20.40;67.60
1956;DHT22;978;48.314;11.562;2024-03-02T14:24:57;20.50;67.70
1956;DHT22;978;48.314;11.562;2024-03-02T14:27:24;20.40;67.70
1956;DHT22;978;48.314;11.562;2024-03-02T14:29:51;20.40;67.70
1956;DHT22;978;48.314;11.562;2024-03-02T14:32:19;20.40;67.70
1956;DHT22;978;48.314;11.562;2024-03-02T14:34:46;20.50;67.90
1956;DHT22;978;48.314;11.562;2024-03-02T14:37:14;20.50;67.90
1956;DHT22;978;48.314;11.562;2024-03-02T14:39:41;20.40;67.90
1956;DHT22;978;48.314;11.562;2024-03-02T14:42:08;20.50;67.90
1956;DHT22;978;48.314;11.562;2024-03-02T14:44:36;20.50;68.00
1956;DHT22;978;48.314;11.562;2024-03-02T14:47:03;20.50;68.00
1956;DHT22;978;48.314;11.562;2024-03-02T14:49:31;20.50;68.00
1956;DHT22;978;48.314;11.562;2024-03-02T14:51:59;20.50;68.10
1956;DHT22;978;48.314;11.562;2024-03-02T14:54:26;20.50;68.10
1956;DHT22;978;48.314;11.562;2024-03-02T14:56:52;20.50;68.10
1956;DHT22;978;48.314;11.562;2024-03-02T14:59:19;20.50;68.00
1956;DHT22;978;48.314;11.562;2024-03-02T15:01:46;20.40;68.10
1956;DHT22;978;48.314;11.562;2024-03-02T15:04:14;20.50;68.10
1956;DHT22;978;48.314;11.562;2024-03-02T15:06:43;20.50;68.40
1956;DHT22;978;48.314;11.562;2024-03-02T15:09:10;20.50;68.70
1956;DHT22;978;48.314;11.562;2024-03-02T15:11:38;20.50;68.80
1956;DHT22;978;48.314;11.562;2024-03-02T15:14:05;20.50;69.30
1956;DHT22;978;48.314;11.562;2024-03-02T15:16:32;20.50;68.80
1956;DHT22;978;48.314;11.562;2024-03-02T15:18:59;20.50;68.80
1956;DHT22;978;48.314;11.562;2024-03-02T15:21:25;20.50;68.70
1956;DHT22;978;48.314;11.562;2024-03-02T15:23:53;20.50;68.70
1956;DHT22;978;48.314;11.562;2024-03-02T15:26:20;20.50;68.70
1956;DHT22;978;48.314;11.562;2024-03-02T15:28:47;20.50;68.80
1956;DHT22;978;48.314;11.562;2024-03-02T15:31:14;20.50;68.80
1956;DHT22;978;48.314;11.562;2024-03-02T15:33:42;20.50;68.70
1956;DHT22;978;48.314;11.562;2024-03-02T15:36:09;20.50;68.90
1956;DHT22;978;48.314;11.562;2024-03-02T15:38:36;20.50;68.90
1956;DHT22;978;48.314;11.562;2024-03-02T15:41:04;20.50;69.00
1956;DHT22;978;48.314;11.562;2024-03-02T15:43:31;20.50;69.30
1956;DHT22;978;48.314;11.562;2024-03-02T15:45:58;20.50;69.40
1956;DHT22;978;48.314;11.562;2024-03-02T15:48:25;20.50;69.30
1956;DHT22;978;48.314;11.562;2024-03-02T15:50:52;20.50;69.10
1956;DHT22;978;48.314;11.562;2024-03-02T15:53:19;20.50;69.10
1956;DHT22;978;48.314;11.562;2024-03-02T15:55:47;20.50;70.00
1956;DHT22;978;48.314;11.562;2024-03-02T15:58:16;20.50;69.30
1956;DHT22;978;48.314;11.562;2024-03-02T16:00:43;20.50;69.20
1956;DHT22;978;48.314;11.562;2024-03-02T16:03:11;20.50;69.30
1956;DHT22;978;48.314;11.562;2024-03-02T16:05:39;20.50;69.30